Time;durP1;ratioP1;P1;durP2;ratioP2;P2;SDS_P1;SDS_P2;PMS_P1;PMS_P2;Temp;Humidity;BMP_temperature;BMP_pressure;BME280_temperature;BME280_humidity;BME280_pressure;Samples;Min_cycle;Max_cycle;Signal;HPM_P1;HPM_P2
2022/09/14 00:01:45;;;;;;;3.40;1.60;;;;;;;22.45;55.31;100781.16;5030988;28;20087;-68
2022/09/14 00:04:16;;;;;;;6.28;1.90;;;;;;;22.44;55.06;100766.19;5031263;28;20048;-68
2022/09/14 00:06:42;;;;;;;4.63;2.10;;;;;;;22.43;55.27;100764.56;5030846;28;20033;-68
2022/09/14 00:09:12;;;;;;;5.38;1.90;;;;;;;22.44;55.09;100760.88;5031040;28;20040;-68
2022/09/14 00:11:37;;;;;;;3.03;1.70;;;;;;;22.38;55.43;100756.22;5029587;28;20099;-68
2022/09/14 00:14:04;;;;;;;4.05;1.67;;;;;;;22.38;55.24;100756.22;5030784;28;20449;-68
2022/09/14 00:16:32;;;;;;;4.13;1.80;;;;;;;22.41;54.94;100766.53;5031305;28;20068;-69
2022/09/14 00:19:00;;;;;;;5.53;1.90;;;;;;;22.37;55.22;100762.50;5030898;28;20037;-68
2022/09/14 00:21:26;;;;;;;4.10;1.63;;;;;;;22.37;55.25;100757.19;5030811;28;20368;-69
2022/09/14 00:23:52;;;;;;;4.10;1.77;;;;;;;22.36;55.28;100763.50;5030748;28;20112;-69
2022/09/14 00:26:20;;;;;;;4.40;1.90;;;;;;;22.40;55.42;100770.16;5030741;28;20049;-69
2022/09/14 00:28:49;;;;;;;3.80;1.75;;;;;;;22.38;55.07;100766.84;5030066;28;20026;-69
2022/09/14 00:31:15;;;;;;;4.85;1.80;;;;;;;22.37;54.98;100764.34;5031121;28;20045;-69
2022/09/14 00:33:41;;;;;;;5.43;1.80;;;;;;;22.34;54.67;100756.69;5030475;28;20037;-68
2022/09/14 00:36:09;;;;;;;4.28;2.00;;;;;;;22.38;55.31;100766.00;5030161;28;20053;-69
2022/09/14 00:38:34;;;;;;;3.97;1.90;;;;;;;22.37;54.91;100756.38;5031164;28;20095;-68
2022/09/14 00:41:01;;;;;;;4.55;1.77;;;;;;;22.36;54.76;100754.69;5031109;28;20902;-69
2022/09/14 00:43:26;;;;;;;3.45;1.60;;;;;;;22.29;54.87;100749.16;5030336;28;20084;-69
2022/09/14 00:45:52;;;;;;;4.45;2.03;;;;;;;22.35;55.22;100750.38;5031030;28;20049;-68
2022/09/14 00:48:18;;;;;;;2.72;1.42;;;;;;;22.30;55.09;100742.88;5030814;28;20110;-69
2022/09/14 00:50:44;;;;;;;3.72;1.80;;;;;;;22.33;55.24;100742.56;5029759;28;20128;-68
2022/09/14 00:53:10;;;;;;;4.13;1.70;;;;;;;22.29;54.88;100727.91;5031163;28;20116;-68
2022/09/14 00:55:35;;;;;;;4.97;1.70;;;;;;;22.29;54.89;100717.28;5030828;28;20040;-69
2022/09/14 00:58:01;;;;;;;4.28;1.70;;;;;;;22.31;54.81;100725.13;5031460;28;20041;-68
2022/09/14 01:00:28;;;;;;;4.82;1.83;;;;;;;22.30;54.71;100715.50;5034236;28;20120;-68
2022/09/14 01:02:54;;;;;;;4.60;1.73;;;;;;;22.25;55.15;100703.47;5034233;28;20388;-68
2022/09/14 01:05:35;;;;;;;5.13;1.92;;;;;;;22.29;54.86;100706.69;5034156;28;20034;-68
2022/09/14 01:08:15;;;;;;;4.50;1.70;;;;;;;22.28;54.97;100708.47;5034403;28;20681;-68
2022/09/14 01:10:57;;;;;;;4.82;1.67;;;;;;;22.24;54.72;100704.47;5034228;28;20029;-68
2022/09/14 01:13:49;;;;;;;4.55;1.70;;;;;;;22.23;54.79;100694.03;5033464;28;20033;-69
2022/09/14 01:16:43;;;;;;;3.95;1.70;;;;;;;22.27;54.76;100690.06;5034179;28;20028;-68
2022/09/14 01:19:23;;;;;;;4.10;1.60;;;;;;;22.23;55.23;100681.56;5034132;28;20112;-68
2022/09/14 01:21:51;;;;;;;6.20;1.80;;;;;;;22.20;54.68;100689.84;5033911;28;20469;-69
2022/09/14 01:24:46;;;;;;;3.70;1.73;;;;;;;22.23;54.73;100701.97;5033012;28;20025;-68
2022/09/14 01:27:27;;;;;;;5.50;2.00;;;;;;;22.24;54.63;100699.19;5034551;28;20260;-68
2022/09/14 01:30:05;;;;;;;4.05;1.50;;;;;;;22.23;55.26;100707.28;5033383;28;20421;-68
2022/09/14 01:32:37;;;;;;;4.05;1.58;;;;;;;22.23;54.94;100710.78;5033849;28;20033;-68
2022/09/14 01:35:11;;;;;;;4.20;1.70;;;;;;;22.23;54.75;100697.50;5033101;28;20036;-67
2022/09/14 01:37:42;;;;;;;3.60;1.67;;;;;;;22.22;55.00;100695.84;5033938;28;20051;-67
2022/09/14 01:40:20;;;;;;;5.40;1.80;;;;;;;22.19;55.40;100700.63;5033216;28;20029;-66
2022/09/14 01:42:50;;;;;;;4.25;1.70;;;;;;;22.18;54.75;100697.13;5034004;28;20536;-68
2022/09/14 01:45:19;;;;;;;3.72;1.55;;;;;;;22.17;55.11;100695.47;5033297;28;20037;-67
2022/09/14 01:47:56;;;;;;;4.05;1.55;;;;;;;22.16;54.96;100690.31;5033188;28;20083;-68
2022/09/14 01:50:30;;;;;;;4.85;2.10;;;;;;;22.05;55.12;100667.53;5033057;28;20037;-68
2022/09/14 01:53:00;;;;;;;3.72;1.60;;;;;;;22.13;54.95;100682.66;5033689;28;20415;-68
2022/09/14 01:55:38;;;;;;;5.28;1.80;;;;;;;22.18;54.55;100685.69;5033129;28;20536;-68
2022/09/14 01:58:09;;;;;;;5.07;1.70;;;;;;;22.17;55.12;100681.38;5033103;28;20037;-68
2022/09/14 02:00:39;;;;;;;3.85;1.58;;;;;;;22.14;54.67;100681.69;5033295;28;20373;-68
2022/09/14 02:03:16;;;;;;;4.53;1.60;;;;;;;22.17;54.67;100681.38;5033193;28;20036;-69
2022/09/14 02:05:45;;;;;;;5.40;1.77;;;;;;;22.16;54.51;100688.50;5032739;28;20029;-68
2022/09/14 02:08:10;;;;;;;5.60;2.13;;;;;;;22.13;54.31;100672.03;5032546;28;20044;-69
2022/09/14 02:10:36;;;;;;;4.85;1.95;;;;;;;22.13;54.57;100669.38;5032760;28;20029;-68
2022/09/14 02:13:02;;;;;;;3.83;1.52;;;;;;;22.16;54.30;100682.34;5032922;28;20029;-68
2022/09/14 02:15:27;;;;;;;3.92;1.52;;;;;;;22.11;54.78;100680.16;5032884;28;20033;-68
2022/09/14 02:17:53;;;;;;;4.38;1.70;;;;;;;22.10;54.78;100681.97;5032579;28;20458;-68
2022/09/14 02:20:27;;;;;;;3.75;1.80;;;;;;;22.15;54.28;100681.53;5032616;28;20033;-68
2022/09/14 02:22:53;;;;;;;3.53;1.70;;;;;;;22.15;54.34;100680.69;5032078;28;20037;-68
2022/09/14 02:25:20;;;;;;;5.45;1.63;;;;;;;22.15;54.24;100678.03;5032711;28;20041;-68
2022/09/14 02:27:47;;;;;;;4.85;1.60;;;;;;;22.14;54.54;100689.63;5032885;28;20114;-68
2022/09/14 02:30:12;;;;;;;5.15;1.75;;;;;;;22.08;54.38;100677.84;5032476;28;20036;-68
2022/09/14 02:32:46;;;;;;;3.95;1.60;;;;;;;22.06;54.36;100680.66;5032375;28;20041;-68
2022/09/14 02:35:36;;;;;;;6.47;1.95;;;;;;;22.09;54.17;100690.91;5032855;28;20029;-68
2022/09/14 02:38:20;;;;;;;4.53;1.60;;;;;;;22.08;54.56;100685.78;5032409;28;20044;-68
2022/09/14 02:41:03;;;;;;;4.93;1.70;;;;;;;22.14;54.52;100694.94;5032384;28;20404;-68
2022/09/14 02:43:42;;;;;;;4.88;1.60;;;;;;;22.12;54.35;100686.31;5032047;28;20037;-68
2022/09/14 02:46:35;;;;;;;3.90;1.60;;;;;;;22.07;54.49;100679.63;5032449;28;20040;-68
2022/09/14 02:49:20;;;;;;;5.13;1.83;;;;;;;22.08;54.60;100686.63;5032113;28;20376;-68
2022/09/14 02:52:17;;;;;;;4.78;1.80;;;;;;;22.02;54.40;100673.16;5032359;28;20187;-68
2022/09/14 02:54:58;;;;;;;3.40;1.40;;;;;;;22.05;54.65;100676.31;5031862;28;20491;-67
2022/09/14 02:57:24;;;;;;;5.57;1.65;;;;;;;22.00;54.39;100670.66;5031814;28;20033;-68
2022/09/14 02:59:52;;;;;;;4.13;1.70;;;;;;;21.99;54.53;100666.31;5032124;28;20033;-68
2022/09/14 03:02:17;;;;;;;4.45;1.60;;;;;;;22.01;54.67;100659.03;5031717;28;20022;-69
2022/09/14 03:04:43;;;;;;;4.97;1.92;;;;;;;22.01;54.42;100658.19;5031597;28;20028;-68
2022/09/14 03:07:08;;;;;;;3.40;1.33;;;;;;;22.05;54.49;100668.34;5032227;28;20062;-67
2022/09/14 03:09:33;;;;;;;3.72;1.40;;;;;;;22.05;54.02;100657.75;5031753;28;20022;-68
2022/09/14 03:11:59;;;;;;;3.40;1.40;;;;;;;22.00;54.57;100651.22;5031951;28;20041;-68
2022/09/14 03:14:24;;;;;;;4.72;1.55;;;;;;;21.99;54.67;100653.03;5030804;28;20348;-68
2022/09/14 03:16:49;;;;;;;2.93;1.33;;;;;;;22.05;54.04;100657.75;5031625;28;20033;-68
2022/09/14 03:19:15;;;;;;;4.23;1.63;;;;;;;22.03;54.31;100661.53;5031547;28;20123;-68
2022/09/14 03:21:40;;;;;;;4.32;1.60;;;;;;;21.99;54.37;100647.75;5031003;28;20281;-68
2022/09/14 03:24:06;;;;;;;4.35;1.50;;;;;;;21.94;54.29;100639.41;5031326;28;20385;-68
2022/09/14 03:26:35;;;;;;;5.70;1.80;;;;;;;21.95;54.16;100635.75;5031795;28;20059;-68
2022/09/14 03:29:01;;;;;;;5.22;1.63;;;;;;;21.98;54.23;100637.28;5031338;28;20036;-69
2022/09/14 03:31:26;;;;;;;4.32;1.50;;;;;;;21.99;54.57;100642.44;5031386;28;20151;-69
2022/09/14 03:33:54;;;;;;;3.67;1.42;;;;;;;22.02;54.26;100641.31;5031658;28;20024;-68
2022/09/14 03:36:19;;;;;;;3.78;1.58;;;;;;;22.00;54.54;100636.16;5031542;28;20034;-69
2022/09/14 03:38:47;;;;;;;2.72;1.35;;;;;;;21.92;54.47;100625.44;5031463;28;20079;-68
2022/09/14 03:41:13;;;;;;;4.25;1.52;;;;;;;22.00;54.05;100633.50;5031415;28;20472;-68
2022/09/14 03:43:39;;;;;;;5.15;1.40;;;;;;;21.98;54.21;100627.50;5031858;28;20619;-69
2022/09/14 03:46:11;;;;;;;4.45;1.60;;;;;;;22.00;54.05;100628.19;5031753;28;20026;-68
2022/09/14 03:48:36;;;;;;;5.88;1.55;;;;;;;22.00;54.40;100619.38;5031540;28;20033;-68
2022/09/14 03:51:04;;;;;;;4.05;1.58;;;;;;;21.98;54.38;100613.41;5031561;28;20511;-68
2022/09/14 03:53:30;;;;;;;3.78;1.48;;;;;;;22.02;54.17;100625.38;5031288;28;20041;-68
2022/09/14 03:55:56;;;;;;;3.95;1.48;;;;;;;21.93;54.19;100609.38;5031487;28;20044;-67
2022/09/14 03:58:22;;;;;;;4.97;1.60;;;;;;;22.01;53.79;100618.41;5030676;28;20061;-67
2022/09/14 04:00:48;;;;;;;6.00;1.55;;;;;;;;;;5021559;28;20075;-68
2022/09/14 04:03:13;;;;;;;4.78;1.58;;;;;;;21.95;54.18;100606.56;5030740;28;20037;-69
2022/09/14 04:05:38;;;;;;;6.10;1.57;;;;;;;22.01;54.06;100618.41;5031449;28;20054;-68
2022/09/14 04:08:03;;;;;;;3.67;1.30;;;;;;;21.92;54.06;100597.13;5031101;28;20285;-69
2022/09/14 04:10:29;;;;;;;4.78;1.70;;;;;;;21.95;54.20;100603.09;5030784;28;20037;-68
2022/09/14 04:12:54;;;;;;;4.60;1.40;;;;;;;21.94;53.79;100602.28;5030611;28;20060;-67
2022/09/14 04:15:19;;;;;;;4.70;1.70;;;;;;;21.96;53.88;100615.38;5030659;28;20277;-67
2022/09/14 04:17:45;;;;;;;4.78;1.63;;;;;;;21.94;54.03;100607.59;5030884;28;20033;-69
2022/09/14 04:20:10;;;;;;;4.18;1.60;;;;;;;21.90;54.09;100599.09;5031160;28;20419;-68
2022/09/14 04:22:35;;;;;;;3.85;1.40;;;;;;;21.92;53.91;100601.56;5030971;28;20067;-69
2022/09/14 04:25:01;;;;;;;5.07;1.50;;;;;;;21.95;54.06;100605.75;5030860;28;20029;-69
2022/09/14 04:27:26;;;;;;;4.82;1.50;;;;;;;21.93;53.59;100604.06;5030442;28;20045;-69
2022/09/14 04:29:51;;;;;;;3.63;1.50;;;;;;;21.93;53.90;100606.72;5030860;28;20381;-69
2022/09/14 04:32:17;;;;;;;4.55;1.48;;;;;;;21.91;53.73;100595.44;5031179;28;20410;-68
2022/09/14 04:34:42;;;;;;;4.72;1.60;;;;;;;21.88;53.55;100593.09;5034517;28;20381;-68
2022/09/14 04:37:07;;;;;;;3.53;1.50;;;;;;;21.90;53.48;100591.16;5034621;28;20829;-68
2022/09/14 04:39:33;;;;;;;3.25;1.30;;;;;;;21.91;53.98;100592.78;5034403;28;20328;-68
2022/09/14 04:42:01;;;;;;;4.65;1.40;;;;;;;21.91;53.73;100592.78;5034110;28;20708;-68
2022/09/14 04:44:26;;;;;;;3.17;1.30;;;;;;;21.91;53.47;100594.63;5035033;28;20024;-68
2022/09/14 04:46:51;;;;;;;4.20;1.60;;;;;;;21.90;53.53;100592.94;5034664;28;20067;-68
2022/09/14 04:49:17;;;;;;;3.53;1.27;;;;;;;21.89;53.83;100588.66;5034719;28;20036;-67
2022/09/14 04:51:43;;;;;;;3.72;1.50;;;;;;;21.92;53.58;100599.78;5034448;28;20263;-66
2022/09/14 04:54:13;;;;;;;3.83;1.42;;;;;;;21.91;53.47;100592.78;5034394;28;20167;-68
2022/09/14 04:56:38;;;;;;;4.70;1.70;;;;;;;21.86;53.79;100581.00;5034172;28;20487;-67
2022/09/14 04:59:04;;;;;;;5.57;1.63;;;;;;;21.86;53.58;100571.22;5033893;28;20045;-68
2022/09/14 05:01:36;;;;;;;5.28;1.60;;;;;;;21.87;53.46;100575.53;5034060;28;20052;-68
2022/09/14 05:04:03;;;;;;;4.03;1.55;;;;;;;21.86;53.39;100571.22;5033909;28;20584;-69
2022/09/14 05:06:31;;;;;;;3.13;1.42;;;;;;;21.88;53.56;100576.38;5034296;28;20029;-69
2022/09/14 05:08:58;;;;;;;4.72;1.67;;;;;;;21.89;53.56;100570.09;5033789;28;20029;-69
2022/09/14 05:11:26;;;;;;;4.72;1.50;;;;;;;21.91;53.22;100571.56;5034133;28;20041;-68
2022/09/14 05:13:54;;;;;;;4.68;1.55;;;;;;;21.91;53.64;100571.56;5034065;28;20419;-68
2022/09/14 05:16:21;;;;;;;3.50;1.50;;;;;;;21.90;53.63;100569.06;5033892;28;20033;-69
2022/09/14 05:18:46;;;;;;;3.63;1.40;;;;;;;21.85;53.28;100561.59;5033885;28;20037;-68
2022/09/14 05:21:14;;;;;;;4.90;1.35;;;;;;;21.83;53.19;100558.25;5033405;28;20140;-68
2022/09/14 05:23:40;;;;;;;3.47;1.38;;;;;;;21.77;53.69;100548.28;5034236;28;20037;-68
2022/09/14 05:26:05;;;;;;;3.90;1.50;;;;;;;21.87;53.53;100574.69;5033075;28;20052;-68
2022/09/14 05:28:32;;;;;;;4.40;1.33;;;;;;;21.87;53.25;100575.53;5033851;28;20127;-69
2022/09/14 05:30:57;;;;;;;3.78;1.30;;;;;;;21.82;53.52;100564.53;5033057;28;20037;-68
2022/09/14 05:33:22;;;;;;;2.73;1.23;;;;;;;21.84;53.63;100567.91;5032007;28;20035;-69
2022/09/14 05:35:49;;;;;;;3.97;1.55;;;;;;;21.80;53.22;100565.72;5033716;28;20265;-68
2022/09/14 05:38:15;;;;;;;5.55;1.23;;;;;;;21.72;53.71;100558.53;5033414;28;20032;-67
2022/09/14 05:40:40;;;;;;;3.90;1.40;;;;;;;21.86;53.69;100570.38;5033485;28;20959;-67
2022/09/14 05:43:05;;;;;;;3.42;1.20;;;;;;;21.85;53.75;100581.97;5033416;28;20274;-67
2022/09/14 05:45:32;;;;;;;3.40;1.40;;;;;;;21.84;53.46;100578.50;5031472;28;20240;-73
2022/09/14 05:48:03;;;;;;;3.95;1.38;;;;;;;21.73;53.72;100574.28;5033420;28;20277;-67
2022/09/14 05:50:30;;;;;;;3.45;1.30;;;;;;;21.77;54.12;100579.28;5033615;28;20078;-68
2022/09/14 05:52:55;;;;;;;3.30;1.10;;;;;;;21.81;54.50;100586.78;5033310;28;20025;-68
2022/09/14 05:55:20;;;;;;;4.38;1.30;;;;;;;21.80;54.75;100578.97;5032742;28;20108;-67
2022/09/14 05:57:49;;;;;;;5.73;1.50;;;;;;;21.83;54.32;100590.09;5032840;28;20053;-67
2022/09/14 06:00:16;;;;;;;4.93;1.48;;;;;;;21.80;54.28;100579.78;5032776;28;20262;-67
2022/09/14 06:02:48;;;;;;;3.50;1.38;;;;;;;21.85;54.44;100585.47;5033528;28;20033;-66
2022/09/14 06:05:13;;;;;;;3.47;1.75;;;;;;;21.82;54.45;100574.34;5033257;28;20032;-66
2022/09/14 06:07:39;;;;;;;4.20;1.50;;;;;;;21.82;54.66;100577.81;5033111;28;20064;-65
2022/09/14 06:10:05;;;;;;;4.07;1.33;;;;;;;21.83;54.95;100581.31;5032838;28;20037;-66
2022/09/14 06:12:30;;;;;;;6.75;1.58;;;;;;;21.86;54.83;100592.44;5032609;28;20056;-66
2022/09/14 06:14:55;;;;;;;4.13;1.23;;;;;;;21.83;55.18;100583.97;5033695;28;20211;-66
2022/09/14 06:17:20;;;;;;;3.28;1.30;;;;;;;21.84;55.18;100588.25;5032427;28;20144;-68
2022/09/14 06:19:46;;;;;;;2.90;1.40;;;;;;;21.85;54.81;100596.06;5032791;28;20041;-73
2022/09/14 06:22:11;;;;;;;5.87;1.30;;;;;;;21.84;54.90;100598.88;5032496;28;20352;-66
2022/09/14 06:24:36;;;;;;;6.00;1.40;;;;;;;21.83;55.11;100590.09;5032712;28;20265;-66
2022/09/14 06:27:01;;;;;;;4.18;1.60;;;;;;;21.89;55.27;100610.69;5032871;28;20045;-67
2022/09/14 06:29:27;;;;;;;4.35;1.45;;;;;;;21.85;54.94;100592.59;5032083;28;20036;-66
2022/09/14 06:31:53;;;;;;;3.40;1.27;;;;;;;21.89;55.30;100597.44;5022960;28;20120;-65
2022/09/14 06:34:18;;;;;;;4.32;1.30;;;;;;;21.87;54.86;100594.13;5032652;28;20467;-67
2022/09/14 06:36:44;;;;;;;4.57;1.10;;;;;;;21.87;54.98;100590.59;5032092;28;20038;-66
2022/09/14 06:39:09;;;;;;;5.20;1.38;;;;;;;21.89;55.02;100597.44;5031608;28;20288;-64
2022/09/14 06:41:35;;;;;;;3.90;1.40;;;;;;;21.91;54.83;100592.78;5032795;28;20041;-70
2022/09/14 06:44:03;;;;;;;5.30;1.30;;;;;;;21.87;54.81;100583.50;5032302;28;20413;-67
2022/09/14 06:46:31;;;;;;;5.18;1.40;;;;;;;21.85;55.08;100579.31;5032501;28;20021;-66
2022/09/14 06:49:00;;;;;;;3.22;1.08;;;;;;;21.90;55.06;100585.00;5032547;28;20028;-68
2022/09/14 06:51:25;;;;;;;4.13;1.60;;;;;;;21.90;54.95;100580.53;5032270;28;20091;-67
2022/09/14 06:53:52;;;;;;;3.73;1.33;;;;;;;21.85;54.79;100566.88;5032313;28;20267;-68
2022/09/14 06:56:18;;;;;;;4.35;1.60;;;;;;;21.91;54.98;100579.53;5032362;28;20045;-68
2022/09/14 06:58:44;;;;;;;4.60;1.25;;;;;;;21.88;54.72;100571.06;5031518;28;20033;-68
2022/09/14 07:01:11;;;;;;;4.32;1.40;;;;;;;21.91;55.16;100576.06;5032932;28;20413;-67
2022/09/14 07:03:38;;;;;;;5.00;1.40;;;;;;;21.89;55.22;100573.56;5032178;28;20072;-67
2022/09/14 07:06:09;;;;;;;4.72;1.58;;;;;;;21.87;54.81;100566.72;5030562;28;20045;-68
2022/09/14 07:08:36;;;;;;;3.83;1.50;;;;;;;21.89;54.81;100562.13;5031909;28;20103;-67
2022/09/14 07:11:02;;;;;;;4.13;1.30;;;;;;;21.83;55.22;100547.66;5031789;28;20033;-67
2022/09/14 07:13:29;;;;;;;7.18;1.50;;;;;;;21.86;55.04;100563.25;5029634;28;20126;-76
2022/09/14 07:15:54;;;;;;;5.85;1.38;;;;;;;21.85;55.24;100555.44;5030817;28;20473;-78
2022/09/14 07:18:21;;;;;;;4.32;1.58;;;;;;;21.81;54.97;100560.25;5030748;28;20071;-76
2022/09/14 07:20:47;;;;;;;5.80;1.40;;;;;;;21.78;55.37;100555.25;5021789;28;21155;-77
2022/09/14 07:23:12;;;;;;;5.18;1.45;;;;;;;21.84;54.80;100549.31;5031037;28;20072;-78
2022/09/14 07:25:38;;;;;;;4.20;1.35;;;;;;;21.92;54.86;100545.88;5030691;28;20090;-76
2022/09/14 07:28:03;;;;;;;3.78;1.30;;;;;;;21.98;54.10;100547.91;5030247;28;20087;-81
2022/09/14 07:30:28;;;;;;;4.90;1.17;;;;;;;22.03;54.17;100542.13;5030829;28;20500;-75
2022/09/14 07:32:53;;;;;;;3.88;1.30;;;;;;;22.03;54.05;100553.59;5030503;28;20075;-77
2022/09/14 07:35:19;;;;;;;4.72;1.30;;;;;;;22.02;54.12;100551.91;5030249;28;20053;-75
2022/09/14 07:37:45;;;;;;;3.53;1.13;;;;;;;22.07;54.00;100560.22;5029737;28;20044;-74
2022/09/14 07:40:11;;;;;;;4.70;1.58;;;;;;;22.02;54.08;100546.59;5031394;28;20532;-76
2022/09/14 07:42:36;;;;;;;8.15;1.42;;;;;;;22.10;53.61;100545.81;5030342;28;20072;-75
2022/09/14 07:45:03;;;;;;;3.03;1.15;;;;;;;22.16;54.11;100554.94;5030192;28;20477;-75
2022/09/14 07:47:30;;;;;;;8.57;1.55;;;;;;;22.09;53.71;100522.91;5030748;28;20060;-74
2022/09/14 07:49:55;;;;;;;3.10;1.10;;;;;;;22.23;53.26;100545.38;5030021;28;20033;-76
2022/09/14 07:52:20;;;;;;;3.38;1.17;;;;;;;22.21;53.31;100537.56;5030423;28;20040;-74
2022/09/14 07:54:46;;;;;;;5.00;1.40;;;;;;;22.27;53.47;100549.38;5030336;28;20048;-74
2022/09/14 07:57:11;;;;;;;5.97;1.10;;;;;;;22.26;53.63;100553.03;5030190;28;20776;-73
2022/09/14 07:59:37;;;;;;;5.13;1.40;;;;;;;22.29;53.26;100547.41;5031023;28;20274;-76
2022/09/14 08:02:05;;;;;;;3.75;1.30;;;;;;;22.34;53.31;100553.09;5030780;28;20075;-73
2022/09/14 08:04:31;;;;;;;4.53;1.48;;;;;;;22.34;53.18;100552.28;5029963;28;20037;-73
2022/09/14 08:06:56;;;;;;;3.25;1.33;;;;;;;22.30;53.36;100546.41;5030652;28;20765;-78
2022/09/14 08:09:22;;;;;;;3.15;1.27;;;;;;;22.32;52.94;100549.78;5034281;28;20033;-76
2022/09/14 08:11:47;;;;;;;3.97;1.42;;;;;;;22.31;53.00;100550.75;5034443;28;20036;-76
2022/09/14 08:14:14;;;;;;;4.50;1.40;;;;;;;22.34;52.95;100545.13;5034622;28;20033;-73
2022/09/14 08:16:39;;;;;;;5.18;1.50;;;;;;;22.37;53.09;100547.47;5035014;28;20025;-72
2022/09/14 08:19:11;;;;;;;3.78;1.52;;;;;;;22.40;52.64;100544.50;5032989;28;20028;-73
2022/09/14 08:21:36;;;;;;;9.85;1.88;;;;;;;22.36;52.52;100540.47;5034796;28;20037;-75
2022/09/14 08:24:03;;;;;;;3.95;1.40;;;;;;;22.32;52.70;100539.16;5034066;28;20037;-72
2022/09/14 08:26:30;;;;;;;4.03;1.65;;;;;;;22.33;52.83;100547.94;5034129;28;20127;-78
2022/09/14 08:28:55;;;;;;;3.92;1.30;;;;;;;22.31;53.32;100536.66;5034163;28;20026;-77
2022/09/14 08:31:23;;;;;;;5.18;1.55;;;;;;;22.35;52.97;100544.16;5033955;28;20483;-77
2022/09/14 08:33:51;;;;;;;4.78;1.55;;;;;;;22.40;52.92;100547.16;5033600;28;20427;-80
2022/09/14 08:36:20;;;;;;;5.70;1.80;;;;;;;22.44;52.59;100551.13;5033377;28;20448;-76
2022/09/14 08:38:46;;;;;;;6.63;1.50;;;;;;;22.46;52.62;100551.81;5027975;28;20107;-78
2022/09/14 08:41:24;;;;;;;6.20;1.60;;;;;;;22.38;52.96;100551.78;5033911;28;20508;-81
2022/09/14 08:43:52;;;;;;;5.65;1.40;;;;;;;22.39;52.86;100550.78;5034878;28;20041;-80
2022/09/14 08:46:26;;;;;;;5.43;1.73;;;;;;;22.43;52.83;100553.94;5033822;28;20992;-80
2022/09/14 08:48:51;;;;;;;;;;;;;;;22.43;53.06;100556.59;5033962;28;20021;-83
2022/09/14 08:51:17;;;;;;;5.43;1.58;;;;;;;22.45;52.44;100552.81;5034971;28;19917;-73
2022/09/14 08:53:43;;;;;;;4.88;1.50;;;;;;;22.41;52.64;100562.09;5033467;28;20123;-76
2022/09/14 08:56:16;;;;;;;4.97;1.55;;;;;;;22.35;53.19;100560.06;5033857;28;20033;-75
2022/09/14 08:58:50;;;;;;;12.07;1.92;;;;;;;22.37;53.06;100566.03;5033894;28;20029;-73
2022/09/14 09:01:49;;;;;;;7.32;1.90;;;;;;;22.43;52.44;100562.75;5033386;28;20040;-75
2022/09/14 09:04:50;;;;;;;4.88;1.45;;;;;;;22.48;52.43;100566.75;5032865;28;20072;-78
2022/09/14 09:07:41;;;;;;;10.43;2.00;;;;;;;22.52;52.59;100562.78;5033604;28;20112;-76
2022/09/14 09:10:11;;;;;;;7.15;1.63;;;;;;;22.51;52.22;100548.69;5033528;28;20151;-72
2022/09/14 09:12:47;;;;;;;6.07;1.88;;;;;;;22.54;52.13;100555.47;5033353;28;20033;-71
2022/09/14 09:15:44;;;;;;;10.32;1.77;;;;;;;22.44;52.58;100545.00;5033426;28;20025;-77
2022/09/14 09:18:15;;;;;;;4.90;1.58;;;;;;;22.54;52.79;100555.47;5033489;28;20091;-78
2022/09/14 09:20:49;;;;;;;4.93;1.52;;;;;;;22.55;52.61;100550.00;5033561;28;20025;-80
2022/09/14 09:23:22;;;;;;;6.43;1.70;;;;;;;22.53;52.56;100536.06;5033251;28;20069;-78
2022/09/14 09:26:02;;;;;;;7.07;1.65;;;;;;;22.57;52.20;100549.84;5033018;28;20063;-78
2022/09/14 09:28:28;;;;;;;8.18;2.13;;;;;;;22.53;52.57;100544.03;5032930;28;20033;-77
2022/09/14 09:30:57;;;;;;;6.38;1.77;;;;;;;22.44;52.19;100529.88;5033247;28;20477;-78
2022/09/14 09:33:24;;;;;;;8.73;1.63;;;;;;;22.55;52.36;100550.00;5035722;28;20035;-78
2022/09/14 09:35:51;;;;;;;11.40;1.73;;;;;;;22.55;52.51;100542.03;5032661;28;20055;-81
2022/09/14 09:38:23;;;;;;;5.68;1.77;;;;;;;22.60;52.41;100538.91;5032969;28;20492;-79
2022/09/14 09:40:58;;;;;;;5.07;1.90;;;;;;;22.51;52.80;100531.91;5031962;28;20033;-80
2022/09/14 09:43:24;;;;;;;4.47;1.70;;;;;;;22.61;52.53;100549.38;5030807;28;20075;-78
2022/09/14 09:45:54;;;;;;;6.85;2.08;;;;;;;22.59;52.71;100550.53;5031089;28;20029;-77
2022/09/14 09:48:25;;;;;;;7.10;1.80;;;;;;;22.53;52.70;100533.41;5031930;28;20480;-73
2022/09/14 09:51:06;;;;;;;5.28;1.80;;;;;;;22.59;51.96;100554.03;5033191;28;20104;-72
2022/09/14 09:53:35;;;;;;;4.90;1.50;;;;;;;22.59;52.22;100551.38;5032369;28;20750;-74
2022/09/14 09:56:01;;;;;;;6.10;1.85;;;;;;;22.56;52.25;100546.38;5032012;28;20026;-75
2022/09/14 09:58:37;;;;;;;5.32;1.70;;;;;;;22.61;52.59;100554.69;5032696;28;20606;-73
2022/09/14 10:01:37;;;;;;;5.50;1.58;;;;;;;22.59;52.38;100542.56;5032025;28;20033;-73
2022/09/14 10:04:17;;;;;;;4.03;1.52;;;;;;;22.60;52.42;100550.34;5029273;28;20049;-71
2022/09/14 10:06:50;;;;;;;5.03;1.70;;;;;;;22.57;52.28;100548.03;5032397;28;20051;-71
2022/09/14 10:09:19;;;;;;;7.28;1.90;;;;;;;22.58;52.70;100544.38;5026119;28;20807;-72
2022/09/14 10:11:46;;;;;;;5.13;2.08;;;;;;;22.59;52.91;100556.69;5031956;28;20034;-70
2022/09/14 10:14:25;;;;;;;8.80;2.80;;;;;;;22.54;52.57;100552.81;5032389;28;20369;-77
2022/09/14 10:16:51;;;;;;;8.88;2.00;;;;;;;22.48;53.27;100553.47;5032742;28;20028;-77
2022/09/14 10:19:28;;;;;;;7.10;1.90;;;;;;;22.46;53.45;100543.00;5032323;28;20365;-79
2022/09/14 10:22:17;;;;;;;10.90;2.42;;;;;;;22.50;53.20;100548.84;5032537;28;20033;-79
2022/09/14 10:24:56;;;;;;;9.90;2.58;;;;;;;22.48;53.34;100540.19;5032376;28;20055;-77
2022/09/14 10:27:49;;;;;;;8.65;2.13;;;;;;;22.48;53.42;100548.16;5031910;28;20099;-72
2022/09/14 10:30:17;;;;;;;9.95;2.10;;;;;;;22.44;53.75;100545.81;5031213;28;20483;-72
2022/09/14 10:32:58;;;;;;;13.63;2.55;;;;;;;22.49;53.53;100552.47;5032397;28;20199;-71
2022/09/14 10:35:44;;;;;;;15.75;3.80;;;;;;;22.49;54.00;100548.00;5031293;28;20040;-73
2022/09/14 10:38:30;;;;;;;18.15;3.65;;;;;;;22.41;53.68;100550.63;5031492;28;20481;-79
2022/09/14 10:41:32;;;;;;;10.65;2.75;;;;;;;22.32;53.88;100547.13;5031396;28;20030;-77
2022/09/14 10:44:18;;;;;;;6.32;2.20;;;;;;;22.25;53.62;100548.69;5026113;28;20116;-76
2022/09/14 10:47:17;;;;;;;5.55;2.22;;;;;;;22.14;53.64;100539.19;5031116;28;20536;-75
2022/09/14 10:50:19;;;;;;;5.57;1.77;;;;;;;22.08;53.88;100542.50;5031850;28;20036;-76
2022/09/14 10:53:18;;;;;;;6.85;2.00;;;;;;;22.02;54.24;100543.94;5031351;28;20033;-73
2022/09/14 10:55:59;;;;;;;7.80;2.30;;;;;;;21.92;54.40;100535.25;5031789;28;20063;-73
2022/09/14 10:58:30;;;;;;;7.32;2.00;;;;;;;21.95;54.30;100556.16;5030817;28;20064;-72
2022/09/14 11:01:19;;;;;;;6.28;1.95;;;;;;;21.91;54.72;100544.22;5031235;28;20159;-77
2022/09/14 11:04:15;;;;;;;7.20;2.10;;;;;;;21.87;55.10;100549.00;5031064;28;20037;-72
2022/09/14 11:06:50;;;;;;;4.75;1.80;;;;;;;21.79;54.62;100532.19;5031282;28;20487;-79
2022/09/14 11:09:50;;;;;;;9.93;2.20;;;;;;;21.78;55.72;100538.47;5031397;28;20053;-74
2022/09/14 11:12:32;;;;;;;15.18;2.53;;;;;;;21.73;55.66;100528.38;5023647;28;20108;-74
2022/09/14 11:15:36;;;;;;;27.33;3.30;;;;;;;21.69;54.95;100534.97;5031600;28;20068;-73
2022/09/14 11:18:17;;;;;;;22.83;3.30;;;;;;;21.66;55.24;100535.28;5031085;28;20075;-73
2022/09/14 11:20:43;;;;;;;10.38;2.08;;;;;;;21.61;54.14;100529.59;5031023;28;20389;-74
2022/09/14 11:23:26;;;;;;;15.13;2.40;;;;;;;21.58;54.14;100528.09;5031059;28;20029;-76
2022/09/14 11:25:58;;;;;;;7.33;1.40;;;;;;;21.57;54.26;100518.50;5030567;28;20053;-73
2022/09/14 11:28:35;;;;;;;6.30;1.30;;;;;;;21.61;53.68;100519.81;5029417;28;20421;-76
2022/09/14 11:31:12;;;;;;;7.95;1.27;;;;;;;21.68;53.34;100530.63;5031236;28;20380;-75
2022/09/14 11:33:47;;;;;;;8.80;1.45;;;;;;;21.66;53.11;100519.34;5030734;28;20043;-74
2022/09/14 11:36:18;;;;;;;6.15;1.60;;;;;;;21.69;53.61;100514.56;5031081;28;20037;-75
2022/09/14 11:38:51;;;;;;;5.68;1.35;;;;;;;21.72;53.11;100508.94;5030197;28;20029;-72
2022/09/14 11:41:28;;;;;;;3.55;1.20;;;;;;;21.77;52.61;100512.97;5029136;28;20067;-79
2022/09/14 11:44:15;;;;;;;4.53;1.30;;;;;;;21.70;51.83;100505.63;5030025;28;20112;-74